Time,TemperatureF,DewpointF,PressureIn,WindDirection,WindDirectionDegrees,WindSpeedMPH,WindSpeedGustMPH,Humidity,HourlyPrecipIn,Conditions,Clouds,dailyrainin,SolarRadiationWatts/m^2,SoftwareType,DateUTC
2013-02-05 00:00:00,14.9,10.9,29.75,SSW,205,5.0,7.0,84,0.00,,,0.00,0,Wunderground v.1.15,2013-02-05 06:00:00,
2013-02-05 00:05:00,15.1,11.1,29.75,SSE,163,6.0,7.0,84,0.00,,,0.00,0,Wunderground v.1.15,2013-02-05 06:05:00,
2013-02-05 00:15:00,15.6,11.6,29.73,SE,137,5.0,7.0,84,0.00,,,0.00,0,Wunderground v.1.15,2013-02-05 06:15:00,
2013-02-05 00:20:00,15.8,11.8,29.73,South,184,5.0,5.0,84,0.00,,,0.00,0,Wunderground v.1.15,2013-02-05 06:20:00,
2013-02-05 00:25:00,15.9,11.9,29.73,SSE,161,4.0,5.0,84,0.00,,,0.00,0,Wunderground v.1.15,2013-02-05 06:25:00,
2013-02-05 00:30:00,16.2,12.2,29.74,SSW,199,4.0,5.0,84,0.00,,,0.00,0,Wunderground v.1.15,2013-02-05 06:30:00,
2013-02-05 00:35:00,16.4,12.4,29.74,SSE,151,5.0,5.0,84,0.00,,,0.00,0,Wunderground v.1.15,2013-02-05 06:35:00,
2013-02-05 00:45:00,16.7,12.7,29.73,SW,215,5.0,12.0,84,0.00,,,0.00,0,Wunderground v.1.15,2013-02-05 06:45:00,
2013-02-05 00:50:00,16.7,12.7,29.73,SSW,194,6.0,6.0,84,0.00,,,0.00,0,Wunderground v.1.15,2013-02-05 06:50:00,
2013-02-05 00:55:00,16.8,12.8,29.73,South,186,6.0,8.0,84,0.00,,,0.00,0,Wunderground v.1.15,2013-02-05 06:55:00,
2013-02-05 01:00:00,16.9,12.9,29.72,South,191,6.0,6.0,84,0.00,,,0.00,0,Wunderground v.1.15,2013-02-05 07:00:00,
2013-02-05 01:05:00,17.0,13.0,29.72,SSW,198,6.0,6.0,84,0.00,,,0.00,0,Wunderground v.1.15,2013-02-05 07:05:00,
2013-02-05 01:15:00,17.5,13.5,29.71,South,178,5.0,9.0,84,0.00,,,0.00,0,Wunderground v.1.15,2013-02-05 07:15:00,
2013-02-05 01:20:00,17.8,14.1,29.71,SE,126,6.0,6.0,85,0.00,,,0.00,0,Wunderground v.1.15,2013-02-05 07:20:00,
2013-02-05 01:25:00,18.3,14.3,29.71,South,179,6.0,12.0,84,0.00,,,0.00,0,Wunderground v.1.15,2013-02-05 07:25:00,
2013-02-05 01:30:00,18.7,14.7,29.71,South,190,8.0,8.0,84,0.00,,,0.00,0,Wunderground v.1.15,2013-02-05 07:30:00,
2013-02-05 01:35:00,19.1,15.1,29.71,SSW,192,7.0,8.0,84,0.00,,,0.00,0,Wunderground v.1.15,2013-02-05 07:35:00,
2013-02-05 01:40:00,19.3,15.3,29.71,SSW,207,7.0,8.0,84,0.00,,,0.00,0,Wunderground v.1.15,2013-02-05 07:40:00,
2013-02-05 01:50:00,19.5,15.5,29.70,South,190,6.0,7.0,84,0.00,,,0.00,0,Wunderground v.1.15,2013-02-05 07:50:00,
2013-02-05 01:55:00,19.3,15.0,29.70,SW,219,7.0,7.0,83,0.00,,,0.00,0,Wunderground v.1.15,2013-02-05 07:55:00,
2013-02-05 02:00:00,19.1,15.1,29.70,SSW,196,6.0,6.0,84,0.00,,,0.00,0,Wunderground v.1.15,2013-02-05 08:00:00,
2013-02-05 02:05:00,19.0,15.0,29.70,SSW,211,6.0,6.0,84,0.00,,,0.00,0,Wunderground v.1.15,2013-02-05 08:05:00,
2013-02-05 02:15:00,19.0,15.0,29.70,SSW,192,5.0,5.0,84,0.00,,,0.00,0,Wunderground v.1.15,2013-02-05 08:15:00,
2013-02-05 02:25:00,19.1,15.1,29.70,SSW,195,5.0,5.0,84,0.00,,,0.00,0,Wunderground v.1.15,2013-02-05 08:25:00,
2013-02-05 02:30:00,19.2,15.2,29.70,SE,125,5.0,5.0,84,0.00,,,0.00,0,Wunderground v.1.15,2013-02-05 08:30:00,
2013-02-05 02:35:00,19.4,15.4,29.70,South,188,5.0,5.0,84,0.00,,,0.00,0,Wunderground v.1.15,2013-02-05 08:35:00,
2013-02-05 02:40:00,19.4,15.4,29.70,SSW,198,4.0,4.0,84,0.00,,,0.00,0,Wunderground v.1.15,2013-02-05 08:40:00,
2013-02-05 02:45:00,19.4,15.4,29.69,South,183,4.0,7.0,84,0.00,,,0.00,0,Wunderground v.1.15,2013-02-05 08:45:00,
2013-02-05 02:55:00,19.6,15.6,29.69,SSW,211,5.0,5.0,84,0.00,,,0.00,0,Wunderground v.1.15,2013-02-05 08:55:00,
2013-02-05 03:00:00,19.7,15.6,29.68,SSE,168,5.0,7.0,84,0.00,,,0.00,0,Wunderground v.1.15,2013-02-05 09:00:00,
2013-02-05 03:05:00,19.9,16.1,29.68,SW,217,6.0,7.0,85,0.00,,,0.00,0,Wunderground v.1.15,2013-02-05 09:05:00,
2013-02-05 03:15:00,20.5,16.4,29.68,SSW,213,6.0,7.0,84,0.00,,,0.00,0,Wunderground v.1.15,2013-02-05 09:15:00,
2013-02-05 03:25:00,20.6,16.5,29.68,SSW,200,6.0,7.0,84,0.00,,,0.00,0,Wunderground v.1.15,2013-02-05 09:25:00,
2013-02-05 03:30:00,20.5,16.4,29.67,SW,226,6.0,8.0,84,0.00,,,0.00,0,Wunderground v.1.15,2013-02-05 09:30:00,
2013-02-05 03:35:00,20.5,16.4,29.67,SW,218,6.0,8.0,84,0.00,,,0.00,0,Wunderground v.1.15,2013-02-05 09:35:00,
2013-02-05 03:40:00,20.7,16.6,29.67,SSW,211,6.0,7.0,84,0.00,,,0.00,0,Wunderground v.1.15,2013-02-05 09:40:00,
2013-02-05 03:45:00,20.9,16.8,29.67,SW,233,5.0,7.0,84,0.00,,,0.00,0,Wunderground v.1.15,2013-02-05 09:45:00,
2013-02-05 03:50:00,21.2,17.1,29.67,SW,224,5.0,8.0,84,0.00,,,0.00,0,Wunderground v.1.15,2013-02-05 09:50:00,
2013-02-05 04:00:00,21.9,17.8,29.67,SW,215,6.0,6.0,84,0.00,,,0.00,0,Wunderground v.1.15,2013-02-05 10:00:00,
2013-02-05 04:05:00,22.2,18.1,29.67,SW,224,6.0,6.0,84,0.00,,,0.00,0,Wunderground v.1.15,2013-02-05 10:05:00,
2013-02-05 04:15:00,22.7,18.6,29.67,SSW,194,6.0,12.0,84,0.00,,,0.00,0,Wunderground v.1.15,2013-02-05 10:15:00,
2013-02-05 04:20:00,22.9,18.8,29.67,South,191,7.0,7.0,84,0.00,,,0.00,0,Wunderground v.1.15,2013-02-05 10:20:00,
2013-02-05 04:30:00,23.4,19.3,29.67,SW,221,5.0,5.0,84,0.00,,,0.00,0,Wunderground v.1.15,2013-02-05 10:30:00,
2013-02-05 04:35:00,23.5,19.7,29.67,SW,234,5.0,5.0,85,0.00,,,0.00,0,Wunderground v.1.15,2013-02-05 10:35:00,
2013-02-05 04:40:00,23.6,19.8,29.67,WSW,242,4.0,4.0,85,0.00,,,0.00,0,Wunderground v.1.15,2013-02-05 10:40:00,
2013-02-05 04:45:00,23.7,19.9,29.66,SW,218,4.0,4.0,85,0.00,,,0.00,0,Wunderground v.1.15,2013-02-05 10:45:00,
2013-02-05 04:50:00,23.7,19.9,29.66,WSW,246,4.0,4.0,85,0.00,,,0.00,0,Wunderground v.1.15,2013-02-05 10:50:00,
2013-02-05 04:55:00,23.8,20.2,29.66,WSW,240,3.0,4.0,86,0.00,,,0.00,0,Wunderground v.1.15,2013-02-05 10:55:00,
2013-02-05 05:00:00,24.0,20.4,29.66,SW,215,3.0,4.0,86,0.00,,,0.00,0,Wunderground v.1.15,2013-02-05 11:00:00,
2013-02-05 05:05:00,24.1,20.5,29.66,WSW,242,4.0,4.0,86,0.00,,,0.00,0,Wunderground v.1.15,2013-02-05 11:05:00,
2013-02-05 05:15:00,24.0,20.4,29.66,SW,222,5.0,7.0,86,0.00,,,0.00,0,Wunderground v.1.15,2013-02-05 11:15:00,
2013-02-05 05:20:00,24.2,20.9,29.66,SW,229,5.0,6.0,87,0.00,,,0.00,0,Wunderground v.1.15,2013-02-05 11:20:00,
2013-02-05 05:25:00,24.3,21.0,29.66,SW,229,6.0,6.0,87,0.00,,,0.00,0,Wunderground v.1.15,2013-02-05 11:25:00,
2013-02-05 05:30:00,24.3,20.7,29.66,SW,215,5.0,5.0,86,0.00,,,0.00,0,Wunderground v.1.15,2013-02-05 11:30:00,
2013-02-05 05:35:00,24.2,20.6,29.66,SW,223,4.0,7.0,86,0.00,,,0.00,0,Wunderground v.1.15,2013-02-05 11:35:00,
2013-02-05 05:40:00,24.2,20.9,29.66,WSW,244,4.0,4.0,87,0.00,,,0.00,0,Wunderground v.1.15,2013-02-05 11:40:00,
2013-02-05 05:45:00,24.4,21.1,29.68,SW,232,4.0,4.0,87,0.00,,,0.00,0,Wunderground v.1.15,2013-02-05 11:45:00,
2013-02-05 05:50:00,24.4,21.1,29.68,West,272,3.0,3.0,87,0.00,,,0.00,0,Wunderground v.1.15,2013-02-05 11:50:00,
2013-02-05 05:55:00,24.4,21.1,29.68,SW,234,3.0,3.0,87,0.00,,,0.00,0,Wunderground v.1.15,2013-02-05 11:55:00,
2013-02-05 06:00:00,24.5,21.2,29.67,SW,216,2.0,2.0,87,0.00,,,0.00,0,Wunderground v.1.15,2013-02-05 12:00:00,
2013-02-05 06:05:00,24.5,21.2,29.67,SW,236,2.0,3.0,87,0.00,,,0.00,0,Wunderground v.1.15,2013-02-05 12:05:00,
2013-02-05 06:15:00,24.6,21.3,29.68,SW,233,2.0,3.0,87,0.00,,,0.00,0,Wunderground v.1.15,2013-02-05 12:15:00,
2013-02-05 06:20:00,24.7,21.4,29.68,SW,233,2.0,2.0,87,0.00,,,0.00,0,Wunderground v.1.15,2013-02-05 12:20:00,
2013-02-05 06:25:00,24.8,21.5,29.68,SSW,205,2.0,2.0,87,0.00,,,0.00,0,Wunderground v.1.15,2013-02-05 12:25:00,
2013-02-05 06:30:00,24.9,21.6,29.69,West,269,2.0,2.0,87,0.00,,,0.00,0,Wunderground v.1.15,2013-02-05 12:30:00,
2013-02-05 06:40:00,25.2,21.9,29.69,SW,228,3.0,3.0,87,0.00,,,0.00,0,Wunderground v.1.15,2013-02-05 12:40:00,
2013-02-05 06:45:00,25.2,21.9,29.69,West,260,3.0,3.0,87,0.00,,,0.00,0,Wunderground v.1.15,2013-02-05 12:45:00,
2013-02-05 06:50:00,25.2,21.9,29.69,WSW,258,2.0,3.0,87,0.00,,,0.00,0,Wunderground v.1.15,2013-02-05 12:50:00,
2013-02-05 06:55:00,25.2,21.9,29.69,WSW,240,2.0,3.0,87,0.00,,,0.00,0,Wunderground v.1.15,2013-02-05 12:55:00,
2013-02-05 07:00:00,25.2,21.9,29.69,SW,218,2.0,3.0,87,0.00,,,0.00,0,Wunderground v.1.15,2013-02-05 13:00:00,
2013-02-05 07:05:00,25.2,21.9,29.69,West,263,2.0,3.0,87,0.00,,,0.00,0,Wunderground v.1.15,2013-02-05 13:05:00,
2013-02-05 07:15:00,25.2,21.9,29.71,West,263,2.0,2.0,87,0.00,,,0.00,0,Wunderground v.1.15,2013-02-05 13:15:00,
2013-02-05 07:20:00,25.2,21.9,29.71,WSW,253,2.0,2.0,87,0.00,,,0.00,0,Wunderground v.1.15,2013-02-05 13:20:00,
2013-02-05 07:25:00,25.3,22.0,29.71,WSW,253,2.0,3.0,87,0.00,,,0.00,0,Wunderground v.1.15,2013-02-05 13:25:00,
2013-02-05 07:30:00,25.3,22.0,29.71,WSW,252,2.0,3.0,87,0.00,,,0.00,0,Wunderground v.1.15,2013-02-05 13:30:00,
2013-02-05 07:40:00,25.4,22.1,29.71,WSW,252,2.0,2.0,87,0.00,,,0.00,0,Wunderground v.1.15,2013-02-05 13:40:00,
2013-02-05 07:45:00,25.5,22.2,29.72,WSW,252,1.0,2.0,87,0.00,,,0.00,5,Wunderground v.1.15,2013-02-05 13:45:00,
2013-02-05 07:50:00,25.6,22.3,29.72,WSW,252,1.0,2.0,87,0.00,,,0.00,11,Wunderground v.1.15,2013-02-05 13:50:00,
2013-02-05 07:55:00,25.7,22.4,29.72,WSW,252,2.0,2.0,87,0.00,,,0.00,25,Wunderground v.1.15,2013-02-05 13:55:00,
2013-02-05 08:00:00,25.9,22.6,29.73,WSW,252,1.0,1.0,87,0.00,,,0.00,37,Wunderground v.1.15,2013-02-05 14:00:00,
2013-02-05 08:05:00,26.3,23.0,29.73,WNW,291,2.0,2.0,87,0.00,,,0.00,32,Wunderground v.1.15,2013-02-05 14:05:00,
2013-02-05 08:15:00,27.0,23.4,29.73,West,263,2.0,2.0,86,0.00,,,0.00,18,Wunderground v.1.15,2013-02-05 14:15:00,
2013-02-05 08:20:00,27.3,23.4,29.73,WNW,300,3.0,3.0,85,0.00,,,0.00,16,Wunderground v.1.15,2013-02-05 14:20:00,
2013-02-05 08:25:00,27.5,23.6,29.73,NW,316,2.0,3.0,85,0.00,,,0.00,26,Wunderground v.1.15,2013-02-05 14:25:00,
2013-02-05 08:30:00,27.6,23.4,29.75,West,269,2.0,3.0,84,0.00,,,0.00,33,Wunderground v.1.15,2013-02-05 14:30:00,
2013-02-05 08:35:00,27.7,23.2,29.75,WNW,301,4.0,4.0,83,0.00,,,0.00,42,Wunderground v.1.15,2013-02-05 14:35:00,
2013-02-05 08:40:00,27.8,23.0,29.75,West,280,4.0,4.0,82,0.00,,,0.00,54,Wunderground v.1.15,2013-02-05 14:40:00,
2013-02-05 08:50:00,28.0,22.6,29.75,WNW,290,3.0,3.0,80,0.00,,,0.00,58,Wunderground v.1.15,2013-02-05 14:50:00,
2013-02-05 08:55:00,28.1,22.7,29.75,West,280,3.0,3.0,80,0.00,,,0.00,58,Wunderground v.1.15,2013-02-05 14:55:00,
2013-02-05 09:00:00,28.1,22.4,29.77,NW,304,3.0,3.0,79,0.00,,,0.00,53,Wunderground v.1.15,2013-02-05 15:00:00,
2013-02-05 09:05:00,28.1,22.4,29.77,NNW,338,4.0,4.0,79,0.00,,,0.00,56,Wunderground v.1.15,2013-02-05 15:05:00,
2013-02-05 09:15:00,28.2,22.2,29.77,North,360,4.0,7.0,78,0.00,,,0.00,67,Wunderground v.1.15,2013-02-05 15:15:00,
2013-02-05 09:20:00,28.1,22.1,29.77,West,278,6.0,6.0,78,0.00,,,0.00,63,Wunderground v.1.15,2013-02-05 15:20:00,
2013-02-05 09:30:00,28.1,22.1,29.78,West,281,4.0,4.0,78,0.00,,,0.00,72,Wunderground v.1.15,2013-02-05 15:30:00,
2013-02-05 09:35:00,28.1,22.1,29.78,WNW,298,4.0,5.0,78,0.00,,,0.00,72,Wunderground v.1.15,2013-02-05 15:35:00,
2013-02-05 09:40:00,28.1,22.1,29.78,NW,310,4.0,4.0,78,0.00,,,0.00,77,Wunderground v.1.15,2013-02-05 15:40:00,
2013-02-05 09:45:00,28.2,22.2,29.79,NW,322,3.0,4.0,78,0.00,,,0.00,77,Wunderground v.1.15,2013-02-05 15:45:00,
2013-02-05 09:55:00,28.2,22.2,29.79,NW,304,3.0,4.0,78,0.00,,,0.00,81,Wunderground v.1.15,2013-02-05 15:55:00,
2013-02-05 10:00:00,28.2,22.2,29.80,NNW,330,3.0,3.0,78,0.00,,,0.00,86,Wunderground v.1.15,2013-02-05 16:00:00,
2013-02-05 10:05:00,28.3,22.3,29.80,WNW,302,3.0,3.0,78,0.00,,,0.00,88,Wunderground v.1.15,2013-02-05 16:05:00,
2013-02-05 10:15:00,28.4,22.4,29.80,WNW,302,2.0,5.0,78,0.00,,,0.00,88,Wunderground v.1.15,2013-02-05 16:15:00,
2013-02-05 10:25:00,28.5,22.5,29.80,NNW,327,3.0,3.0,78,0.00,,,0.00,79,Wunderground v.1.15,2013-02-05 16:25:00,
2013-02-05 10:30:00,28.4,22.4,29.82,NNE,19,3.0,4.0,78,0.00,,,0.00,88,Wunderground v.1.15,2013-02-05 16:30:00,
2013-02-05 10:35:00,28.3,22.3,29.82,North,355,3.0,4.0,78,0.00,,,0.00,93,Wunderground v.1.15,2013-02-05 16:35:00,
2013-02-05 10:40:00,28.2,22.2,29.82,NNW,330,3.0,3.0,78,0.00,,,0.00,116,Wunderground v.1.15,2013-02-05 16:40:00,
2013-02-05 10:45:00,28.1,22.1,29.83,NNW,340,2.0,3.0,78,0.00,,,0.00,118,Wunderground v.1.15,2013-02-05 16:45:00,
2013-02-05 10:50:00,28.1,22.1,29.83,NNE,13,3.0,5.0,78,0.00,,,0.00,149,Wunderground v.1.15,2013-02-05 16:50:00,
2013-02-05 11:00:00,27.9,21.9,29.84,WNW,302,4.0,4.0,78,0.00,,,0.00,160,Wunderground v.1.15,2013-02-05 17:00:00,
2013-02-05 11:05:00,27.9,21.9,29.84,NW,324,4.0,6.0,78,0.00,,,0.00,185,Wunderground v.1.15,2013-02-05 17:05:00,
2013-02-05 11:15:00,28.1,21.8,29.86,NE,41,4.0,4.0,77,0.00,,,0.00,204,Wunderground v.1.15,2013-02-05 17:15:00,
2013-02-05 11:20:00,28.2,21.9,29.86,NNW,330,4.0,6.0,77,0.00,,,0.00,206,Wunderground v.1.15,2013-02-05 17:20:00,
2013-02-05 11:30:00,28.0,21.1,29.86,WNW,300,5.0,5.0,75,0.00,,,0.00,267,Wunderground v.1.15,2013-02-05 17:30:00,
2013-02-05 11:35:00,28.2,21.0,29.86,WNW,298,4.0,5.0,74,0.00,,,0.00,272,Wunderground v.1.15,2013-02-05 17:35:00,
2013-02-05 11:40:00,28.5,21.3,29.86,WSW,255,3.0,3.0,74,0.00,,,0.00,236,Wunderground v.1.15,2013-02-05 17:40:00,
2013-02-05 11:45:00,28.5,20.9,29.87,North,360,3.0,3.0,73,0.00,,,0.00,274,Wunderground v.1.15,2013-02-05 17:45:00,
2013-02-05 11:50:00,28.5,20.6,29.87,North,355,3.0,3.0,72,0.00,,,0.00,262,Wunderground v.1.15,2013-02-05 17:50:00,
2013-02-05 11:55:00,28.4,20.2,29.87,NNW,330,4.0,7.0,71,0.00,,,0.00,283,Wunderground v.1.15,2013-02-05 17:55:00,
2013-02-05 12:05:00,28.5,19.6,29.87,NNW,338,5.0,5.0,69,0.00,,,0.00,540,Wunderground v.1.15,2013-02-05 18:05:00,
2013-02-05 12:15:00,28.3,18.7,29.87,NNW,339,5.0,8.0,67,0.00,,,0.00,531,Wunderground v.1.15,2013-02-05 18:15:00,
2013-02-05 12:25:00,27.8,18.3,29.87,NNW,344,6.0,10.0,67,0.00,,,0.00,508,Wunderground v.1.15,2013-02-05 18:25:00,
2013-02-05 12:30:00,27.8,18.3,29.88,North,5,5.0,5.0,67,0.00,,,0.00,512,Wunderground v.1.15,2013-02-05 18:30:00,
2013-02-05 12:35:00,28.0,18.1,29.88,NNW,347,4.0,5.0,66,0.00,,,0.00,513,Wunderground v.1.15,2013-02-05 18:35:00,
2013-02-05 12:40:00,28.1,18.2,29.88,NW,319,4.0,4.0,66,0.00,,,0.00,517,Wunderground v.1.15,2013-02-05 18:40:00,
2013-02-05 12:45:00,28.3,18.0,29.88,WNW,284,5.0,6.0,65,0.00,,,0.01,512,Wunderground v.1.15,2013-02-05 18:45:00,
2013-02-05 12:50:00,28.1,17.8,29.88,North,355,5.0,5.0,65,0.00,,,0.01,506,Wunderground v.1.15,2013-02-05 18:50:00,
2013-02-05 13:00:00,28.7,18.4,29.89,NNW,340,3.0,3.0,65,0.00,,,0.01,501,Wunderground v.1.15,2013-02-05 19:00:00,
2013-02-05 13:05:00,28.8,17.8,29.89,North,355,4.0,4.0,63,0.00,,,0.01,501,Wunderground v.1.15,2013-02-05 19:05:00,
2013-02-05 13:15:00,28.3,17.3,29.90,North,355,5.0,5.0,63,0.00,,,0.01,494,Wunderground v.1.15,2013-02-05 19:15:00,
2013-02-05 13:20:00,28.5,17.5,29.90,NNE,21,4.0,4.0,63,0.00,,,0.01,492,Wunderground v.1.15,2013-02-05 19:20:00,
2013-02-05 13:25:00,28.3,16.9,29.90,North,5,4.0,4.0,62,0.00,,,0.01,487,Wunderground v.1.15,2013-02-05 19:25:00,
2013-02-05 13:30:00,28.7,17.7,29.90,NNW,342,3.0,3.0,63,0.00,,,0.01,489,Wunderground v.1.15,2013-02-05 19:30:00,
2013-02-05 13:40:00,29.1,17.7,29.90,WNW,303,2.0,2.0,62,0.00,,,0.01,492,Wunderground v.1.15,2013-02-05 19:40:00,
2013-02-05 13:50:00,29.3,17.5,29.92,NNW,330,3.0,3.0,61,0.00,,,0.02,464,Wunderground v.1.15,2013-02-05 19:50:00,
2013-02-05 13:55:00,29.1,17.3,29.92,West,279,3.0,3.0,61,0.00,,,0.02,457,Wunderground v.1.15,2013-02-05 19:55:00,
2013-02-05 14:05:00,28.8,17.0,29.92,WNW,294,2.0,4.0,61,0.00,,,0.02,445,Wunderground v.1.15,2013-02-05 20:05:00,
2013-02-05 14:15:00,28.2,16.5,29.93,WNW,283,3.0,3.0,61,0.00,,,0.02,431,Wunderground v.1.15,2013-02-05 20:15:00,
2013-02-05 14:20:00,28.1,16.4,29.93,NW,310,3.0,3.0,61,0.00,,,0.02,425,Wunderground v.1.15,2013-02-05 20:20:00,
2013-02-05 14:25:00,28.1,16.0,29.93,West,263,3.0,3.0,60,0.00,,,0.02,415,Wunderground v.1.15,2013-02-05 20:25:00,
2013-02-05 14:30:00,27.9,16.2,29.94,NNW,347,3.0,3.0,61,0.00,,,0.02,408,Wunderground v.1.15,2013-02-05 20:30:00,
2013-02-05 14:35:00,28.0,16.3,29.94,WNW,300,3.0,3.0,61,0.00,,,0.03,401,Wunderground v.1.15,2013-02-05 20:35:00,
2013-02-05 14:40:00,28.1,16.0,29.94,West,273,2.0,5.0,60,0.00,,,0.03,392,Wunderground v.1.15,2013-02-05 20:40:00,
2013-02-05 14:45:00,27.5,15.0,29.94,West,281,3.0,5.0,59,0.00,,,0.03,383,Wunderground v.1.15,2013-02-05 20:45:00,
2013-02-05 14:50:00,27.4,15.3,29.94,WNW,303,3.0,3.0,60,0.00,,,0.03,374,Wunderground v.1.15,2013-02-05 20:50:00,
2013-02-05 14:55:00,27.2,15.1,29.94,NW,318,2.0,3.0,60,0.00,,,0.03,366,Wunderground v.1.15,2013-02-05 20:55:00,
2013-02-05 15:00:00,27.3,14.8,29.95,NW,318,2.0,3.0,59,0.00,,,0.03,357,Wunderground v.1.15,2013-02-05 21:00:00,
2013-02-05 15:05:00,27.0,14.9,29.95,West,269,2.0,3.0,60,0.00,,,0.03,346,Wunderground v.1.15,2013-02-05 21:05:00,
2013-02-05 15:15:00,27.1,14.7,29.95,WNW,296,2.0,4.0,59,0.00,,,0.03,325,Wunderground v.1.15,2013-02-05 21:15:00,
2013-02-05 15:20:00,26.9,14.5,29.95,WNW,299,3.0,3.0,59,0.00,,,0.03,315,Wunderground v.1.15,2013-02-05 21:20:00,
2013-02-05 15:25:00,26.8,14.4,29.95,NNW,330,2.0,3.0,59,0.00,,,0.03,304,Wunderground v.1.15,2013-02-05 21:25:00,
2013-02-05 15:30:00,26.8,14.4,29.96,WSW,246,2.0,4.0,59,0.00,,,0.03,295,Wunderground v.1.15,2013-02-05 21:30:00,
2013-02-05 15:35:00,26.8,14.4,29.96,West,273,2.0,4.0,59,0.00,,,0.03,283,Wunderground v.1.15,2013-02-05 21:35:00,
2013-02-05 15:40:00,27.0,14.6,29.96,NW,311,2.0,2.0,59,0.00,,,0.03,271,Wunderground v.1.15,2013-02-05 21:40:00,
2013-02-05 15:50:00,27.1,14.3,29.96,West,267,2.0,2.0,58,0.00,,,0.04,248,Wunderground v.1.15,2013-02-05 21:50:00,
2013-02-05 15:55:00,26.8,14.0,29.96,West,265,2.0,2.0,58,0.00,,,0.04,237,Wunderground v.1.15,2013-02-05 21:55:00,
2013-02-05 16:00:00,26.5,13.7,29.97,West,262,2.0,3.0,58,0.00,,,0.04,227,Wunderground v.1.15,2013-02-05 22:00:00,
2013-02-05 16:05:00,26.2,13.4,29.97,WNW,292,3.0,3.0,58,0.00,,,0.04,211,Wunderground v.1.15,2013-02-05 22:05:00,
2013-02-05 16:15:00,26.3,13.5,29.97,West,270,1.0,2.0,58,0.00,,,0.04,186,Wunderground v.1.15,2013-02-05 22:15:00,
2013-02-05 16:25:00,25.7,12.9,29.97,WNW,283,2.0,2.0,58,0.00,,,0.04,162,Wunderground v.1.15,2013-02-05 22:25:00,
2013-02-05 16:30:00,25.3,12.6,29.98,West,259,3.0,5.0,58,0.00,,,0.04,142,Wunderground v.1.15,2013-02-05 22:30:00,
2013-02-05 16:35:00,25.1,12.8,29.98,West,274,2.0,5.0,59,0.00,,,0.04,125,Wunderground v.1.15,2013-02-05 22:35:00,
2013-02-05 16:40:00,24.9,12.2,29.98,WSW,248,2.0,3.0,58,0.00,,,0.04,111,Wunderground v.1.15,2013-02-05 22:40:00,
2013-02-05 16:45:00,24.8,12.1,29.99,West,267,2.0,3.0,58,0.00,,,0.04,95,Wunderground v.1.15,2013-02-05 22:45:00,
2013-02-05 16:50:00,24.5,11.8,29.99,West,279,2.0,2.0,58,0.00,,,0.04,76,Wunderground v.1.15,2013-02-05 22:50:00,
2013-02-05 16:55:00,24.3,11.6,29.99,NW,325,2.0,2.0,58,0.00,,,0.04,51,Wunderground v.1.15,2013-02-05 22:55:00,
2013-02-05 17:00:00,24.0,11.3,29.99,NW,304,2.0,2.0,58,0.00,,,0.04,19,Wunderground v.1.15,2013-02-05 23:00:00,
2013-02-05 17:05:00,23.5,11.3,29.99,WNW,294,1.0,2.0,59,0.00,,,0.04,14,Wunderground v.1.15,2013-02-05 23:05:00,
2013-02-05 17:15:00,22.7,11.3,29.99,West,260,1.0,1.0,61,0.00,,,0.04,7,Wunderground v.1.15,2013-02-05 23:15:00,
2013-02-05 17:25:00,22.1,10.7,29.99,West,260,1.0,1.0,61,0.00,,,0.04,5,Wunderground v.1.15,2013-02-05 23:25:00,
2013-02-05 17:30:00,21.9,10.9,29.99,West,261,1.0,1.0,62,0.00,,,0.04,0,Wunderground v.1.15,2013-02-05 23:30:00,
2013-02-05 17:35:00,21.6,10.6,29.99,West,261,1.0,1.0,62,0.00,,,0.04,0,Wunderground v.1.15,2013-02-05 23:35:00,
2013-02-05 17:40:00,21.3,10.3,29.99,West,260,0.0,0.0,62,0.00,,,0.04,0,Wunderground v.1.15,2013-02-05 23:40:00,
2013-02-05 17:45:00,21.0,10.0,30.00,West,261,0.0,0.0,62,0.00,,,0.04,0,Wunderground v.1.15,2013-02-05 23:45:00,
2013-02-05 17:50:00,20.7,10.1,30.00,West,261,0.0,0.0,63,0.00,,,0.04,0,Wunderground v.1.15,2013-02-05 23:50:00,
2013-02-05 18:00:00,20.2,9.6,30.01,West,261,0.0,0.0,63,0.00,,,0.04,0,Wunderground v.1.15,2013-02-06 00:00:00,
2013-02-05 18:05:00,19.8,9.6,30.01,West,261,0.0,0.0,64,0.00,,,0.04,0,Wunderground v.1.15,2013-02-06 00:05:00,
2013-02-05 18:15:00,19.3,9.1,30.02,West,261,0.0,0.0,64,0.00,,,0.04,0,Wunderground v.1.15,2013-02-06 00:15:00,
2013-02-05 18:20:00,18.9,9.1,30.02,West,261,0.0,0.0,65,0.00,,,0.04,0,Wunderground v.1.15,2013-02-06 00:20:00,
2013-02-05 18:30:00,18.3,8.8,30.02,West,261,0.0,0.0,66,0.00,,,0.04,0,Wunderground v.1.15,2013-02-06 00:30:00,
2013-02-05 18:35:00,18.1,8.6,30.02,West,260,0.0,1.0,66,0.00,,,0.04,0,Wunderground v.1.15,2013-02-06 00:35:00,
2013-02-05 18:40:00,17.7,8.3,30.02,West,261,1.0,1.0,66,0.00,,,0.04,0,Wunderground v.1.15,2013-02-06 00:40:00,
2013-02-05 18:45:00,17.3,8.2,30.03,West,261,1.0,1.0,67,0.00,,,0.04,0,Wunderground v.1.15,2013-02-06 00:45:00,
2013-02-05 18:50:00,17.1,8.0,30.03,West,260,0.0,0.0,67,0.00,,,0.04,0,Wunderground v.1.15,2013-02-06 00:50:00,
2013-02-05 18:55:00,16.8,8.1,30.03,West,260,0.0,0.0,68,0.00,,,0.04,0,Wunderground v.1.15,2013-02-06 00:55:00,
2013-02-05 19:05:00,16.2,7.8,30.03,West,260,0.0,0.0,69,0.00,,,0.04,0,Wunderground v.1.15,2013-02-06 01:05:00,
2013-02-05 19:15:00,15.3,6.9,30.04,West,261,0.0,0.0,69,0.00,,,0.04,0,Wunderground v.1.15,2013-02-06 01:15:00,
2013-02-05 19:20:00,14.9,6.9,30.04,West,261,0.0,0.0,70,0.00,,,0.04,0,Wunderground v.1.15,2013-02-06 01:20:00,
2013-02-05 19:25:00,14.5,6.8,30.04,West,260,0.0,0.0,71,0.00,,,0.04,0,Wunderground v.1.15,2013-02-06 01:25:00,
2013-02-05 19:30:00,14.1,6.4,30.04,West,260,0.0,0.0,71,0.00,,,0.04,0,Wunderground v.1.15,2013-02-06 01:30:00,
2013-02-05 19:40:00,13.4,6.4,30.04,West,260,0.0,0.0,73,0.00,,,0.04,0,Wunderground v.1.15,2013-02-06 01:40:00,
2013-02-05 19:45:00,13.2,6.5,30.04,West,260,0.0,0.0,74,0.00,,,0.04,0,Wunderground v.1.15,2013-02-06 01:45:00,
2013-02-05 19:50:00,13.1,6.4,30.04,West,261,0.0,0.0,74,0.00,,,0.04,0,Wunderground v.1.15,2013-02-06 01:50:00,
2013-02-05 19:55:00,12.9,6.2,30.04,West,260,0.0,0.0,74,0.00,,,0.04,0,Wunderground v.1.15,2013-02-06 01:55:00,
2013-02-05 20:00:00,12.5,6.1,30.04,West,261,0.0,0.0,75,0.00,,,0.04,0,Wunderground v.1.15,2013-02-06 02:00:00,
2013-02-05 20:05:00,12.1,5.7,30.04,West,261,0.0,0.0,75,0.00,,,0.04,0,Wunderground v.1.15,2013-02-06 02:05:00,
2013-02-05 20:15:00,11.7,5.6,30.04,West,261,0.0,0.0,76,0.00,,,0.04,0,Wunderground v.1.15,2013-02-06 02:15:00,
2013-02-05 20:20:00,11.4,5.6,30.04,West,260,0.0,0.0,77,0.00,,,0.04,0,Wunderground v.1.15,2013-02-06 02:20:00,
2013-02-05 20:25:00,11.0,5.2,30.04,West,261,0.0,0.0,77,0.00,,,0.04,0,Wunderground v.1.15,2013-02-06 02:25:00,
2013-02-05 20:30:00,10.5,4.7,30.04,West,261,0.0,0.0,77,0.00,,,0.04,0,Wunderground v.1.15,2013-02-06 02:30:00,
2013-02-05 20:40:00,10.1,4.6,30.04,West,260,0.0,1.0,78,0.00,,,0.04,0,Wunderground v.1.15,2013-02-06 02:40:00,
2013-02-05 20:45:00,9.8,4.3,30.05,West,260,0.0,1.0,78,0.00,,,0.04,0,Wunderground v.1.15,2013-02-06 02:45:00,
2013-02-05 20:55:00,9.8,4.6,30.05,West,261,0.0,0.0,79,0.00,,,0.04,0,Wunderground v.1.15,2013-02-06 02:55:00,
2013-02-05 21:00:00,9.6,4.4,30.06,West,261,0.0,0.0,79,0.00,,,0.04,0,Wunderground v.1.15,2013-02-06 03:00:00,
2013-02-05 21:05:00,9.4,4.2,30.06,West,261,0.0,0.0,79,0.00,,,0.04,0,Wunderground v.1.15,2013-02-06 03:05:00,
2013-02-05 21:15:00,10.0,5.1,30.07,West,261,1.0,1.0,80,0.00,,,0.04,0,Wunderground v.1.15,2013-02-06 03:15:00,
2013-02-05 21:20:00,10.3,5.1,30.07,West,260,0.0,0.0,79,0.00,,,0.04,0,Wunderground v.1.15,2013-02-06 03:20:00,
2013-02-05 21:25:00,10.2,5.0,30.07,West,261,0.0,0.0,79,0.00,,,0.04,0,Wunderground v.1.15,2013-02-06 03:25:00,
2013-02-05 21:30:00,10.3,5.4,30.07,West,261,0.0,0.0,80,0.00,,,0.04,0,Wunderground v.1.15,2013-02-06 03:30:00,
2013-02-05 21:35:00,10.5,5.5,30.07,West,260,0.0,0.0,80,0.00,,,0.04,0,Wunderground v.1.15,2013-02-06 03:35:00,
2013-02-05 21:40:00,10.9,5.9,30.07,West,260,0.0,0.0,80,0.00,,,0.04,0,Wunderground v.1.15,2013-02-06 03:40:00,
2013-02-05 21:45:00,11.1,6.1,30.07,West,261,0.0,0.0,80,0.00,,,0.04,0,Wunderground v.1.15,2013-02-06 03:45:00,
2013-02-05 21:55:00,10.3,5.1,30.07,West,261,0.0,0.0,79,0.00,,,0.04,0,Wunderground v.1.15,2013-02-06 03:55:00,
2013-02-05 22:00:00,9.9,4.7,30.07,West,260,0.0,0.0,79,0.00,,,0.04,0,Wunderground v.1.15,2013-02-06 04:00:00,
2013-02-05 22:05:00,9.7,4.5,30.07,West,260,0.0,0.0,79,0.00,,,0.04,0,Wunderground v.1.15,2013-02-06 04:05:00,
2013-02-05 22:15:00,9.3,4.4,30.06,West,260,0.0,0.0,80,0.00,,,0.04,0,Wunderground v.1.15,2013-02-06 04:15:00,
2013-02-05 22:20:00,9.3,4.4,30.06,West,261,0.0,0.0,80,0.00,,,0.04,0,Wunderground v.1.15,2013-02-06 04:20:00,
2013-02-05 22:30:00,9.0,4.1,30.06,West,261,0.0,0.0,80,0.00,,,0.04,0,Wunderground v.1.15,2013-02-06 04:30:00,
2013-02-05 22:40:00,8.4,3.5,30.06,West,261,0.0,0.0,80,0.00,,,0.04,0,Wunderground v.1.15,2013-02-06 04:40:00,
2013-02-05 22:45:00,8.1,3.2,30.06,West,261,0.0,0.0,80,0.00,,,0.04,0,Wunderground v.1.15,2013-02-06 04:45:00,
2013-02-05 22:55:00,7.6,3.0,30.06,West,261,0.0,0.0,81,0.00,,,0.04,0,Wunderground v.1.15,2013-02-06 04:55:00,
2013-02-05 23:00:00,7.6,3.0,30.08,West,261,0.0,0.0,81,0.00,,,0.04,0,Wunderground v.1.15,2013-02-06 05:00:00,
2013-02-05 23:05:00,7.4,2.8,30.08,West,260,0.0,0.0,81,0.00,,,0.04,0,Wunderground v.1.15,2013-02-06 05:05:00,
2013-02-05 23:15:00,7.4,3.1,30.07,West,260,0.0,0.0,82,0.00,,,0.04,0,Wunderground v.1.15,2013-02-06 05:15:00,
2013-02-05 23:25:00,6.7,2.4,30.07,West,261,0.0,0.0,82,0.00,,,0.04,0,Wunderground v.1.15,2013-02-06 05:25:00,
2013-02-05 23:30:00,6.4,2.1,30.08,West,261,0.0,0.0,82,0.00,,,0.04,0,Wunderground v.1.15,2013-02-06 05:30:00,
2013-02-05 23:35:00,6.0,1.7,30.08,West,260,0.0,0.0,82,0.00,,,0.04,0,Wunderground v.1.15,2013-02-06 05:35:00,
2013-02-05 23:40:00,5.7,1.4,30.08,West,261,0.0,0.0,82,0.00,,,0.04,0,Wunderground v.1.15,2013-02-06 05:40:00,
2013-02-05 23:45:00,5.5,1.2,30.08,West,261,0.0,0.0,82,0.00,,,0.04,0,Wunderground v.1.15,2013-02-06 05:45:00,
2013-02-05 23:50:00,5.4,1.1,30.08,West,261,0.0,0.0,82,0.00,,,0.04,0,Wunderground v.1.15,2013-02-06 05:50:00,
2013-02-05 23:55:00,5.2,0.9,30.08,West,261,0.0,0.0,82,0.00,,,0.04,0,Wunderground v.1.15,2013-02-06 05:55:00,